Mercury — 3FFC7 — position and weather

sailwx.info

Track history (hours):
 
Tides and Currents Weather Stations Pressure Air Temp Water Temp Dewpoint Dewpoint Depression Visibility Wind Speed Wind Dir Waves Ship Positions

Mercury

Operator: Royal Caribbean Cruises Ltd

Last reported at 2019-Jul-15 12:20 UTC. Time now 2019-Jul-16 10:33 UTC.
Position N 31°32' E 128°06'.

Length 199 m; draft 8.3 m.

Type: Cargo ship. MMSI: 371862000.

Date/timePositionNaut miles runAvg speedWind from/ knotsBaromVisibWave heightAir tempDewpointWater temp
2019-Jul-15 12:20N 31°32' E 128°06'617.5
2019-Jul-15 11:58N 31°35' E 127°60'1617.1
2019-Jul-15 11:03N 31°43' E 127°43'117.5
2019-Jul-15 11:00N 31°43' E 127°42'  
2019-Jul-12 18:38N 38°25' E 121°23'617.0
2019-Jul-12 18:16N 38°22' E 121°30'43816.2
2019-Jul-11 15:13N 31°06' E 122°32'1112.3
2019-Jul-11 14:19N 31°06' E 122°19'413.9
2019-Jul-11 14:00N 31°08' E 122°15'814.3
2019-Jul-11 13:25N 31°13' E 122°07'614.0
2019-Jul-11 13:00N 31°15' E 122°01'713.7
2019-Jul-11 12:30N 31°16' E 121°53'612.2
2019-Jul-11 12:00N 31°18' E 121°46'2 0.2
2019-Jul-10 22:41N 31°19' E 121°44'210.3
2019-Jul-10 22:31N 31°18' E 121°46'5 9.2
2019-Jul-10 21:55N 31°16' E 121°51'410.4
2019-Jul-10 21:29N 31°15' E 121°57'510.0
2019-Jul-10 21:00N 31°14' E 122°02'510.2
2019-Jul-10 20:30N 31°13' E 122°08'5 9.3
2019-Jul-10 19:58N 31°10' E 122°12'4 9.0
2019-Jul-10 19:30N 31°07' E 122°16'6 9.6
2019-Jul-10 18:53N 31°06' E 122°23'  
2019-Jul-07 19:55N 26°10' E 120°56'3616.4
2019-Jul-07 17:45N 25°39' E 120°36'415.9
2019-Jul-07 17:29N 25°35' E 120°34'2115.7
2019-Jul-07 16:09N 25°17' E 120°23'41414.1
2019-Jul-06 10:49N 21°47' E 113°54'1115.3
2019-Jul-06 10:04N 21°58' E 113°53'116.6
2019-Jul-06 09:59N 21°60' E 113°53'714.6
2019-Jul-06 09:29N 22°06' E 113°49'610.4
2019-Jul-06 08:56N 22°12' E 113°48'716.0
2019-Jul-06 08:30N 22°18' E 113°48'815.0
2019-Jul-06 07:58N 22°26' E 113°45'713.3
2019-Jul-06 07:26N 22°33' E 113°44'913.0
2019-Jul-06 06:44N 22°42' E 113°41'311.4
2019-Jul-06 06:28N 22°45' E 113°39'  
Track history (hours):
 
Tides and Currents Weather Stations Pressure Air Temp Water Temp Dewpoint Dewpoint Depression Visibility Wind Speed Wind Dir Waves Ship Positions

Mercury

Operator: Royal Caribbean Cruises Ltd

Last reported at 2019-Jul-15 12:20 UTC. Time now 2019-Jul-16 10:33 UTC.
Position N 31°32' E 128°06'.

Length 199 m; draft 8.3 m.

Type: Cargo ship. MMSI: 371862000.

Date/timePositionNaut miles runAvg speedWind from/ knotsBaromVisibWave heightAir tempDewpointWater temp
2019-Jul-15 12:20N 31°32' E 128°06'617.5
2019-Jul-15 11:58N 31°35' E 127°60'1617.1
2019-Jul-15 11:03N 31°43' E 127°43'117.5
2019-Jul-15 11:00N 31°43' E 127°42'  
2019-Jul-12 18:38N 38°25' E 121°23'617.0
2019-Jul-12 18:16N 38°22' E 121°30'43816.2
2019-Jul-11 15:13N 31°06' E 122°32'1112.3
2019-Jul-11 14:19N 31°06' E 122°19'413.9
2019-Jul-11 14:00N 31°08' E 122°15'814.3
2019-Jul-11 13:25N 31°13' E 122°07'614.0
2019-Jul-11 13:00N 31°15' E 122°01'713.7
2019-Jul-11 12:30N 31°16' E 121°53'612.2
2019-Jul-11 12:00N 31°18' E 121°46'2 0.2
2019-Jul-10 22:41N 31°19' E 121°44'210.3
2019-Jul-10 22:31N 31°18' E 121°46'5 9.2
2019-Jul-10 21:55N 31°16' E 121°51'410.4
2019-Jul-10 21:29N 31°15' E 121°57'510.0
2019-Jul-10 21:00N 31°14' E 122°02'510.2
2019-Jul-10 20:30N 31°13' E 122°08'5 9.3
2019-Jul-10 19:58N 31°10' E 122°12'4 9.0
2019-Jul-10 19:30N 31°07' E 122°16'6 9.6
2019-Jul-10 18:53N 31°06' E 122°23'  
2019-Jul-07 19:55N 26°10' E 120°56'3616.4
2019-Jul-07 17:45N 25°39' E 120°36'415.9
2019-Jul-07 17:29N 25°35' E 120°34'2115.7
2019-Jul-07 16:09N 25°17' E 120°23'41414.1
2019-Jul-06 10:49N 21°47' E 113°54'1115.3
2019-Jul-06 10:04N 21°58' E 113°53'116.6
2019-Jul-06 09:59N 21°60' E 113°53'714.6
2019-Jul-06 09:29N 22°06' E 113°49'610.4
2019-Jul-06 08:56N 22°12' E 113°48'716.0
2019-Jul-06 08:30N 22°18' E 113°48'815.0
2019-Jul-06 07:58N 22°26' E 113°45'713.3
2019-Jul-06 07:26N 22°33' E 113°44'913.0
2019-Jul-06 06:44N 22°42' E 113°41'311.4
2019-Jul-06 06:28N 22°45' E 113°39'  

Dump ship's entire track history